Time;durP1;ratioP1;P1;durP2;ratioP2;P2;SDS_P1;SDS_P2;PMS_P1;PMS_P2;Temp;Humidity;BMP_temperature;BMP_pressure;BME280_temperature;BME280_humidity;BME280_pressure;Samples;Min_cycle;Max_cycle;Signal;HPM_P1;HPM_P2
2021/07/30 00:00:39;;;;;;;58.80;2.77;;;15.60;1.00;;;;;;5031910;28;20893;-75
2021/07/30 00:03:06;;;;;;;58.30;2.70;;;15.60;1.00;;;;;;5031132;28;20505;-76
2021/07/30 00:05:33;;;;;;;58.17;2.60;;;15.60;1.00;;;;;;5031654;28;20475;-74
2021/07/30 00:08:00;;;;;;;57.93;2.67;;;15.60;1.00;;;;;;5033900;28;20580;-74
2021/07/30 00:10:28;;;;;;;58.33;2.70;;;15.60;1.00;;;;;;5051244;28;20503;-75
2021/07/30 00:12:56;;;;;;;57.93;2.60;;;15.50;1.00;;;;;;5051030;28;20886;-74
2021/07/30 00:15:23;;;;;;;58.23;2.60;;;15.40;1.00;;;;;;5051274;28;21034;-74
2021/07/30 00:17:50;;;;;;;58.33;2.60;;;15.40;1.00;;;;;;5051505;28;20445;-74
2021/07/30 00:20:18;;;;;;;58.27;2.53;;;15.40;1.00;;;;;;5051314;28;20488;-74
2021/07/30 00:22:44;;;;;;;58.23;2.80;;;15.40;1.00;;;;;;5051077;28;20453;-74
2021/07/30 00:25:12;;;;;;;59.00;2.80;;;15.40;1.00;;;;;;5051262;28;20555;-74
2021/07/30 00:27:41;;;;;;;59.73;3.10;;;15.40;1.00;;;;;;5051469;28;20485;-75
2021/07/30 00:30:09;;;;;;;58.37;3.00;;;15.30;1.00;;;;;;5051004;28;20452;-74
2021/07/30 00:32:36;;;;;;;58.60;2.90;;;15.20;1.00;;;;;;5051046;28;20539;-75
2021/07/30 00:35:03;;;;;;;58.50;3.00;;;15.20;1.00;;;;;;5051280;28;20555;-75
2021/07/30 00:37:30;;;;;;;58.67;2.87;;;15.10;1.00;;;;;;5051188;28;20451;-74
2021/07/30 00:39:57;;;;;;;58.57;2.67;;;15.10;1.00;;;;;;5043010;28;20887;-75
2021/07/30 00:42:23;;;;;;;58.47;2.80;;;15.00;1.00;;;;;;5047889;28;20489;-75
2021/07/30 00:44:52;;;;;;;58.70;3.10;;;14.90;1.00;;;;;;5055430;28;20551;-75
2021/07/30 00:47:20;;;;;;;59.00;3.43;;;14.90;1.00;;;;;;5054884;28;20515;-74
2021/07/30 00:49:46;;;;;;;58.47;2.60;;;14.90;1.00;;;;;;5054909;28;20457;-74
2021/07/30 00:52:13;;;;;;;58.27;2.90;;;14.90;1.00;;;;;;5054283;28;20543;-74
2021/07/30 00:54:40;;;;;;;58.57;3.00;;;14.90;1.00;;;;;;5054955;28;20884;-74
2021/07/30 00:57:07;;;;;;;59.00;2.97;;;14.90;1.00;;;;;;5054924;28;20818;-74
2021/07/30 00:59:34;;;;;;;58.37;2.80;;;14.90;1.00;;;;;;5054929;28;20456;-75
2021/07/30 01:02:03;;;;;;;58.53;2.70;;;14.80;1.00;;;;;;5054135;28;20479;-75
2021/07/30 01:04:30;;;;;;;58.80;2.93;;;14.80;1.00;;;;;;5054543;28;20455;-74
2021/07/30 01:06:57;;;;;;;58.27;2.70;;;14.80;1.00;;;;;;5054249;28;20543;-74
2021/07/30 01:09:24;;;;;;;58.50;3.20;;;14.70;1.00;;;;;;5054696;28;20448;-75
2021/07/30 01:11:50;;;;;;;58.23;2.63;;;14.70;1.00;;;;;;5035850;28;20450;-74
2021/07/30 01:14:17;;;;;;;58.60;2.80;;;14.60;1.00;;;;;;5034648;28;20453;-74
2021/07/30 01:16:44;;;;;;;58.77;2.60;;;14.60;1.00;;;;;;5034377;28;20509;-72
2021/07/30 01:19:21;;;;;;;58.80;2.97;;;14.60;1.00;;;;;;5034290;28;21020;-74
2021/07/30 01:21:49;;;;;;;58.37;2.70;;;14.50;1.00;;;;;;5034385;28;20457;-75
2021/07/30 01:24:20;;;;;;;58.43;2.80;;;14.50;1.00;;;;;;5034329;28;20457;-74
2021/07/30 01:26:49;;;;;;;59.77;3.63;;;14.50;1.00;;;;;;5034201;28;20554;-74
2021/07/30 01:29:16;;;;;;;58.57;2.93;;;14.50;1.00;;;;;;5034251;28;20833;-74
2021/07/30 01:31:43;;;;;;;58.40;2.70;;;14.40;1.00;;;;;;5033726;28;20536;-74
2021/07/30 01:34:09;;;;;;;58.57;2.80;;;14.40;1.00;;;;;;5034227;28;20457;-74
2021/07/30 01:36:36;;;;;;;58.00;2.70;;;14.40;1.00;;;;;;5034147;28;20469;-74
2021/07/30 01:39:03;;;;;;;58.50;2.60;;;14.30;1.00;;;;;;5034274;28;20826;-74
2021/07/30 01:41:31;;;;;;;58.90;2.97;;;14.30;1.00;;;;;;5035656;28;20496;-74
2021/07/30 01:43:58;;;;;;;58.47;2.77;;;14.30;1.00;;;;;;5053592;28;20485;-74
2021/07/30 01:46:25;;;;;;;58.27;2.70;;;14.30;1.00;;;;;;5053485;28;20500;-74
2021/07/30 01:48:52;;;;;;;58.47;2.50;;;14.30;1.00;;;;;;5053747;28;20482;-74
2021/07/30 01:51:19;;;;;;;58.60;2.87;;;14.30;1.00;;;;;;5053794;28;20893;-75
2021/07/30 01:53:45;;;;;;;58.37;2.63;;;14.30;1.00;;;;;;5053892;28;20543;-74
2021/07/30 01:56:12;;;;;;;58.20;2.60;;;14.30;1.00;;;;;;5053718;28;20464;-74
2021/07/30 01:58:40;;;;;;;58.50;2.80;;;14.20;1.00;;;;;;5053708;28;20539;-75
2021/07/30 02:01:07;;;;;;;58.60;3.20;;;14.20;1.00;;;;;;5053814;28;20539;-74
2021/07/30 02:03:34;;;;;;;58.90;3.20;;;14.10;1.00;;;;;;5053303;28;20551;-74
2021/07/30 02:06:06;;;;;;;58.50;2.80;;;14.10;1.00;;;;;;5053473;28;20499;-74
2021/07/30 02:08:33;;;;;;;59.07;3.20;;;14.10;1.00;;;;;;5053402;28;20858;-74
2021/07/30 02:11:00;;;;;;;59.83;2.90;;;14.10;1.00;;;;;;5053127;28;20503;-74
2021/07/30 02:16:12;;;;;;;58.37;2.60;;;14.10;1.00;;;;;;5053042;28;20548;-75
2021/07/30 02:18:39;;;;;;;58.37;2.70;;;14.10;1.00;;;;;;5053248;28;20471;-75
2021/07/30 02:21:06;;;;;;;59.67;3.20;;;14.10;1.00;;;;;;5053229;28;20474;-74
2021/07/30 02:23:33;;;;;;;58.70;3.10;;;14.10;1.00;;;;;;5053018;28;21028;-74
2021/07/30 02:26:00;;;;;;;58.43;2.50;;;14.00;1.00;;;;;;5052855;28;20663;-74
2021/07/30 02:28:27;;;;;;;58.47;2.50;;;14.00;1.00;;;;;;5052961;28;20490;-74
2021/07/30 02:30:53;;;;;;;60.57;3.23;;;14.00;1.00;;;;;;5053027;28;20491;-75
2021/07/30 02:33:22;;;;;;;58.40;2.60;;;14.00;1.00;;;;;;5053060;28;20948;-74
2021/07/30 02:35:48;;;;;;;58.43;3.00;;;14.00;1.00;;;;;;5052887;28;20504;-74
2021/07/30 02:38:15;;;;;;;59.30;2.93;;;14.00;1.00;;;;;;5052792;28;20949;-74
2021/07/30 02:40:42;;;;;;;58.57;2.77;;;14.00;1.00;;;;;;5052467;28;20884;-74
2021/07/30 02:43:09;;;;;;;58.97;2.77;;;13.90;1.00;;;;;;5052456;28;20492;-74
2021/07/30 02:45:36;;;;;;;58.57;2.57;;;13.90;1.00;;;;;;5051336;28;20560;-74
2021/07/30 02:48:03;;;;;;;58.50;2.50;;;13.90;1.00;;;;;;5052426;28;20482;-74
2021/07/30 02:50:31;;;;;;;58.60;2.77;;;13.80;1.00;;;;;;5052675;28;20540;-74
2021/07/30 02:52:58;;;;;;;58.70;2.93;;;13.80;1.00;;;;;;5052325;28;20548;-74
2021/07/30 02:55:24;;;;;;;58.67;2.90;;;13.80;1.00;;;;;;5052641;28;20500;-74
2021/07/30 02:57:51;;;;;;;58.80;3.17;;;13.80;1.00;;;;;;5052623;28;20877;-74
2021/07/30 03:00:18;;;;;;;58.70;2.70;;;13.80;1.00;;;;;;5052469;28;20543;-74
2021/07/30 03:02:45;;;;;;;58.33;2.70;;;13.80;1.00;;;;;;5051741;28;20464;-73
2021/07/30 03:05:12;;;;;;;59.20;3.73;;;13.80;1.00;;;;;;5052220;28;21098;-74
2021/07/30 03:07:40;;;;;;;58.27;2.87;;;13.80;1.00;;;;;;5052094;28;20570;-74
2021/07/30 03:10:08;;;;;;;58.60;2.80;;;13.80;1.00;;;;;;5052561;28;20491;-75
2021/07/30 03:12:35;;;;;;;58.67;2.67;;;13.80;1.00;;;;;;5052379;28;20479;-74
2021/07/30 03:15:03;;;;;;;58.57;2.77;;;13.80;1.00;;;;;;5045165;28;20469;-74
2021/07/30 03:17:30;;;;;;;58.60;2.77;;;13.90;1.00;;;;;;5040879;28;20448;-74
2021/07/30 03:19:57;;;;;;;58.87;2.97;;;13.90;1.00;;;;;;5052067;28;20531;-74
2021/07/30 03:22:24;;;;;;;58.93;3.20;;;13.90;1.00;;;;;;5051690;28;20542;-74
2021/07/30 03:24:52;;;;;;;58.37;2.90;;;13.90;1.00;;;;;;5052049;28;20478;-75
2021/07/30 03:27:19;;;;;;;58.57;2.70;;;13.80;1.00;;;;;;5052063;28;20548;-75
2021/07/30 03:29:46;;;;;;;58.47;2.80;;;13.80;1.00;;;;;;5052100;28;20502;-74
2021/07/30 03:32:13;;;;;;;58.87;3.00;;;13.80;1.00;;;;;;5051590;28;20539;-74
2021/07/30 03:34:40;;;;;;;58.27;2.60;;;13.80;1.00;;;;;;5051667;28;20548;-74
2021/07/30 03:37:06;;;;;;;58.50;2.60;;;13.70;1.00;;;;;;5051912;28;20539;-74
2021/07/30 03:39:33;;;;;;;58.07;2.67;;;13.80;1.00;;;;;;5051962;28;20444;-75
2021/07/30 03:42:02;;;;;;;58.17;3.27;;;13.70;1.00;;;;;;5051551;28;20835;-74
2021/07/30 03:44:28;;;;;;;58.70;2.90;;;13.70;1.00;;;;;;5051754;28;20448;-74
2021/07/30 03:46:55;;;;;;;58.27;2.57;;;13.70;1.00;;;;;;5050397;28;20543;-74
2021/07/30 03:49:22;;;;;;;58.37;2.60;;;13.70;1.00;;;;;;5051258;28;20480;-75
2021/07/30 03:51:49;;;;;;;58.37;2.70;;;13.70;1.00;;;;;;5051683;28;20483;-74
2021/07/30 03:54:17;;;;;;;58.27;2.67;;;13.70;1.00;;;;;;5051765;28;20483;-74
2021/07/30 03:56:44;;;;;;;58.27;2.70;;;13.60;1.00;;;;;;5051614;28;20526;-75
2021/07/30 03:59:13;;;;;;;58.40;2.60;;;13.60;1.00;;;;;;5051607;28;20463;-74
2021/07/30 04:01:47;;;;;;;58.57;2.67;;;13.50;1.00;;;;;;5051421;28;20702;-74
2021/07/30 04:04:14;;;;;;;58.60;2.80;;;13.50;1.00;;;;;;5051607;28;20456;-74
2021/07/30 04:06:40;;;;;;;58.37;2.63;;;13.50;1.00;;;;;;5051648;28;20831;-75
2021/07/30 04:09:10;;;;;;;58.57;2.70;;;13.40;1.00;;;;;;5051414;28;21067;-74
2021/07/30 04:11:37;;;;;;;58.80;3.33;;;13.40;1.00;;;;;;5051396;28;20793;-74
2021/07/30 04:14:05;;;;;;;58.80;3.20;;;13.40;1.00;;;;;;5053902;28;20495;-75
2021/07/30 04:16:33;;;;;;;58.57;3.00;;;13.30;1.00;;;;;;5054419;28;20528;-75
2021/07/30 04:19:00;;;;;;;58.47;2.73;;;13.30;1.00;;;;;;5055109;28;20948;-74
2021/07/30 04:21:27;;;;;;;58.37;2.80;;;13.30;1.00;;;;;;5055449;28;20479;-75
2021/07/30 04:23:54;;;;;;;58.60;3.00;;;13.20;1.00;;;;;;5055480;28;20452;-74
2021/07/30 04:26:21;;;;;;;58.70;2.97;;;13.20;1.00;;;;;;5055303;28;20464;-75
2021/07/30 04:28:47;;;;;;;59.00;3.20;;;13.20;1.00;;;;;;5055196;28;20933;-75
2021/07/30 04:31:14;;;;;;;58.67;3.17;;;13.20;1.00;;;;;;5055272;28;20940;-74
2021/07/30 04:33:43;;;;;;;58.90;3.30;;;13.20;1.00;;;;;;5055254;28;20458;-75
2021/07/30 04:36:14;;;;;;;58.43;3.00;;;13.20;1.00;;;;;;5055060;28;20546;-74
2021/07/30 04:38:41;;;;;;;58.80;3.10;;;13.30;1.00;;;;;;5055257;28;20867;-75
2021/07/30 04:41:08;;;;;;;59.20;2.90;;;13.30;1.00;;;;;;5055090;28;20447;-75
2021/07/30 04:43:36;;;;;;;58.97;3.57;;;13.30;1.00;;;;;;5054588;28;20542;-75
2021/07/30 04:46:04;;;;;;;58.57;2.90;;;13.30;1.00;;;;;;5055076;28;20554;-75
2021/07/30 04:48:31;;;;;;;58.57;3.00;;;13.30;1.00;;;;;;5053879;28;20862;-75
2021/07/30 04:51:01;;;;;;;58.57;3.00;;;13.40;1.00;;;;;;5054726;28;20458;-75
2021/07/30 04:53:28;;;;;;;59.20;3.30;;;13.40;1.00;;;;;;5054822;28;20501;-75
2021/07/30 04:55:55;;;;;;;58.57;3.00;;;13.50;1.00;;;;;;5054756;28;20504;-75
2021/07/30 04:58:22;;;;;;;58.37;2.70;;;13.50;1.00;;;;;;5055181;28;20891;-75
2021/07/30 05:00:49;;;;;;;58.30;2.87;;;13.50;1.00;;;;;;5054896;28;20547;-75
2021/07/30 05:03:15;;;;;;;58.37;2.60;;;13.60;1.00;;;;;;5054197;28;20792;-74
2021/07/30 05:05:42;;;;;;;58.13;2.50;;;13.60;1.00;;;;;;5054636;28;20464;-75
2021/07/30 05:08:10;;;;;;;58.40;2.80;;;13.60;1.00;;;;;;5054695;28;20852;-75
2021/07/30 05:10:37;;;;;;;58.43;2.67;;;13.60;1.00;;;;;;5054399;28;20475;-75
2021/07/30 05:13:04;;;;;;;58.77;3.37;;;13.70;1.00;;;;;;5054299;28;20544;-75
2021/07/30 05:15:31;;;;;;;58.70;3.00;;;13.70;1.00;;;;;;5054250;28;21034;-75
2021/07/30 05:17:58;;;;;;;58.20;2.50;;;13.80;1.00;;;;;;5054424;28;20455;-75
2021/07/30 05:20:26;;;;;;;58.40;2.50;;;13.80;1.00;;;;;;5053246;28;20793;-75
2021/07/30 05:22:52;;;;;;;58.33;2.47;;;13.90;1.00;;;;;;5053825;28;20532;-75
2021/07/30 05:25:21;;;;;;;58.40;2.60;;;13.90;1.00;;;;;;5053594;28;21034;-75
2021/07/30 05:27:48;;;;;;;58.27;2.43;;;13.90;1.00;;;;;;5054323;28;20536;-75
2021/07/30 05:30:15;;;;;;;58.17;2.60;;;14.00;1.00;;;;;;5054534;28;20586;-75
2021/07/30 05:32:42;;;;;;;58.30;2.50;;;14.00;1.00;;;;;;5053883;28;20547;-75
2021/07/30 05:35:10;;;;;;;58.30;2.70;;;14.10;1.00;;;;;;5054157;28;20563;-75
2021/07/30 05:37:36;;;;;;;58.23;2.60;;;14.20;1.00;;;;;;5053965;28;20485;-75
2021/07/30 05:40:04;;;;;;;58.37;3.17;;;14.20;1.00;;;;;;5054336;28;20538;-75
2021/07/30 05:42:32;;;;;;;59.00;4.20;;;14.20;1.00;;;;;;5053827;28;20535;-76
2021/07/30 05:44:59;;;;;;;58.50;2.83;;;14.30;1.00;;;;;;5053862;28;20503;-76
2021/07/30 05:47:26;;;;;;;58.13;2.57;;;14.30;1.00;;;;;;5053862;28;21027;-74
2021/07/30 05:49:53;;;;;;;58.40;3.00;;;14.40;1.00;;;;;;5050504;28;20562;-75
2021/07/30 05:52:19;;;;;;;58.30;2.50;;;14.50;1.00;;;;;;5038457;28;20535;-75
2021/07/30 05:54:46;;;;;;;59.33;3.47;;;14.50;1.00;;;;;;5053840;28;20460;-75
2021/07/30 06:00:45;;;;;;;58.50;2.90;;;14.60;1.00;;;;;;5949185;23;20490;-75
2021/07/30 06:03:13;;;;;;;58.40;2.80;;;14.70;1.00;;;;;;4984305;28;20489;-75
2021/07/30 06:05:40;;;;;;;58.73;3.00;;;14.80;1.00;;;;;;4994446;28;20569;-75
2021/07/30 06:08:07;;;;;;;59.00;3.60;;;14.80;1.00;;;;;;4994196;28;20461;-76
2021/07/30 06:10:34;;;;;;;58.37;2.80;;;14.90;1.00;;;;;;4993735;28;20843;-75
2021/07/30 06:13:01;;;;;;;58.50;2.80;;;15.00;1.00;;;;;;4994082;28;20684;-75
2021/07/30 06:15:28;;;;;;;60.97;2.90;;;15.00;1.00;;;;;;4994007;28;20451;-75
2021/07/30 06:17:55;;;;;;;58.50;3.20;;;15.20;1.00;;;;;;4994170;28;20506;-75
2021/07/30 06:20:24;;;;;;;57.93;2.60;;;15.20;1.00;;;;;;4993467;28;20879;-76
2021/07/30 06:22:51;;;;;;;58.60;2.80;;;15.30;1.00;;;;;;4978322;28;20546;-76
2021/07/30 06:25:18;;;;;;;58.17;2.80;;;15.40;1.00;;;;;;4974462;28;20956;-75
2021/07/30 06:27:45;;;;;;;58.17;2.60;;;15.50;1.00;;;;;;4974356;28;20496;-75
2021/07/30 06:30:13;;;;;;;59.10;2.93;;;15.60;1.00;;;;;;4973421;28;20501;-75
2021/07/30 06:32:40;;;;;;;58.23;2.90;;;15.70;1.00;;;;;;4974498;28;20485;-76
2021/07/30 06:35:08;;;;;;;58.17;2.60;;;15.80;1.00;;;;;;4974271;28;20883;-75
2021/07/30 06:37:37;;;;;;;58.70;2.80;;;15.90;1.00;;;;;;4973440;28;20450;-75
2021/07/30 06:40:06;;;;;;;58.40;2.60;;;16.00;1.00;;;;;;4973671;28;20511;-75
2021/07/30 06:42:33;;;;;;;58.97;2.70;;;16.10;1.00;;;;;;4973995;28;20464;-75
2021/07/30 06:45:00;;;;;;;58.40;2.70;;;16.20;1.00;;;;;;4974523;28;20547;-75
2021/07/30 06:47:27;;;;;;;58.27;2.90;;;16.40;1.00;;;;;;4974123;28;20457;-75
2021/07/30 06:49:54;;;;;;;58.80;2.70;;;16.50;1.00;;;;;;4973719;28;20493;-75
2021/07/30 06:52:21;;;;;;;58.40;2.73;;;16.60;1.00;;;;;;4974070;28;20543;-75
2021/07/30 06:54:49;;;;;;;59.33;2.83;;;16.70;1.00;;;;;;4980171;28;20452;-76
2021/07/30 06:57:16;;;;;;;58.07;2.43;;;16.80;1.00;;;;;;4993143;28;20453;-75
2021/07/30 06:59:43;;;;;;;58.40;2.63;;;16.90;1.00;;;;;;4992996;28;20488;-76
2021/07/30 07:02:10;;;;;;;58.60;4.13;;;16.90;1.00;;;;;;4993038;28;21028;-75
2021/07/30 07:04:37;;;;;;;58.60;3.37;;;17.10;1.00;;;;;;4993200;28;20536;-76
2021/07/30 07:07:06;;;;;;;58.27;2.60;;;17.10;1.00;;;;;;4993065;28;21016;-75
2021/07/30 07:09:32;;;;;;;58.40;3.00;;;17.30;1.00;;;;;;4992758;28;20485;-75
2021/07/30 07:12:02;;;;;;;58.17;2.40;;;17.40;1.00;;;;;;4992893;28;20455;-75
2021/07/30 07:14:30;;;;;;;58.17;2.80;;;17.50;1.00;;;;;;4993244;28;20445;-76
2021/07/30 07:16:57;;;;;;;58.40;3.20;;;17.60;1.00;;;;;;4993098;28;20544;-76
2021/07/30 07:19:25;;;;;;;58.23;2.60;;;17.70;1.00;;;;;;4992802;28;20453;-75
2021/07/30 07:21:54;;;;;;;58.50;2.77;;;17.80;1.00;;;;;;4992776;28;20954;-75
2021/07/30 07:24:21;;;;;;;58.37;2.60;;;17.90;1.00;;;;;;4992763;28;20462;-75
2021/07/30 07:26:48;;;;;;;58.90;2.70;;;18.00;1.00;;;;;;4993161;28;20454;-75
2021/07/30 07:29:16;;;;;;;58.07;2.53;;;18.10;1.00;;;;;;4979222;28;20924;-75
2021/07/30 07:31:44;;;;;;;58.03;2.60;;;18.30;1.00;;;;;;4973335;28;20563;-74
2021/07/30 07:34:12;;;;;;;59.67;4.00;;;18.40;1.00;;;;;;4973271;28;20455;-75
2021/07/30 07:36:38;;;;;;;59.57;2.60;;;18.50;1.00;;;;;;4973360;28;20451;-75
2021/07/30 07:39:05;;;;;;;58.37;3.00;;;18.60;1.00;;;;;;4972962;28;20938;-76
2021/07/30 07:41:32;;;;;;;58.60;3.07;;;18.80;1.00;;;;;;4973253;28;20478;-75
2021/07/30 07:43:59;;;;;;;58.60;2.90;;;18.90;1.00;;;;;;4972974;28;20483;-75
2021/07/30 07:46:27;;;;;;;58.20;2.40;;;19.10;1.00;;;;;;4972852;28;20448;-75
2021/07/30 07:48:54;;;;;;;58.40;2.80;;;19.20;1.00;;;;;;4972747;28;20466;-75
2021/07/30 07:51:21;;;;;;;58.20;2.90;;;19.30;1.00;;;;;;4972422;28;20555;-75
2021/07/30 07:53:47;;;;;;;58.60;2.70;;;19.50;1.00;;;;;;4973253;28;20530;-75
2021/07/30 07:56:14;;;;;;;58.13;2.50;;;19.60;1.00;;;;;;4973393;28;20452;-75
2021/07/30 07:58:41;;;;;;;58.37;3.10;;;19.70;1.00;;;;;;4973416;28;20559;-75
2021/07/30 08:01:08;;;;;;;58.30;2.73;;;19.80;1.00;;;;;;4972533;28;20564;-76
2021/07/30 08:03:36;;;;;;;58.07;2.47;;;19.90;1.00;;;;;;4988675;28;20551;-75
2021/07/30 08:06:03;;;;;;;57.47;2.20;;;20.00;1.00;;;;;;4992208;28;20499;-75
2021/07/30 08:08:30;;;;;;;58.17;2.40;;;20.10;1.00;;;;;;4992530;28;20642;-75
2021/07/30 08:10:56;;;;;;;58.27;2.60;;;20.30;1.00;;;;;;4991901;28;20530;-75
2021/07/30 08:13:23;;;;;;;57.77;2.40;;;20.40;1.00;;;;;;4992552;28;20885;-75
2021/07/30 08:15:50;;;;;;;57.90;2.60;;;20.60;1.00;;;;;;4992315;28;20532;-75
2021/07/30 08:18:17;;;;;;;58.40;2.50;;;20.70;1.00;;;;;;4992077;28;20537;-75
2021/07/30 08:20:45;;;;;;;58.00;2.30;;;20.90;1.00;;;;;;4991766;28;20466;-75
2021/07/30 08:23:12;;;;;;;57.97;2.40;;;21.00;1.00;;;;;;4992274;28;20480;-75
2021/07/30 08:25:39;;;;;;;57.80;2.20;;;21.10;1.00;;;;;;4992234;28;20543;-75
2021/07/30 08:28:06;;;;;;;58.73;2.80;;;21.30;1.00;;;;;;4992213;28;20449;-75
2021/07/30 08:30:33;;;;;;;58.23;2.60;;;21.40;1.00;;;;;;4991637;28;20507;-75
2021/07/30 08:33:00;;;;;;;57.77;2.80;;;21.50;1.00;;;;;;4991974;28;20461;-75
2021/07/30 08:35:27;;;;;;;58.87;2.60;;;21.50;1.00;;;;;;4989854;28;20540;-75
2021/07/30 08:37:55;;;;;;;58.27;2.70;;;21.60;1.00;;;;;;4992168;28;20872;-74
2021/07/30 08:40:22;;;;;;;57.90;2.83;;;21.70;1.00;;;;;;4991554;28;20560;-74
2021/07/30 08:42:50;;;;;;;57.93;2.57;;;21.80;1.00;;;;;;4992052;28;20865;-74
2021/07/30 08:45:17;;;;;;;58.30;2.40;;;22.00;1.00;;;;;;4989624;28;20498;-76
2021/07/30 08:47:45;;;;;;;58.00;2.60;;;22.10;1.00;;;;;;4991901;28;20966;-74
2021/07/30 08:50:14;;;;;;;58.20;2.70;;;22.30;1.00;;;;;;4991625;28;20487;-74
2021/07/30 08:52:44;;;;;;;58.37;2.80;;;22.40;1.00;;;;;;4991918;28;20831;-76
2021/07/30 08:55:15;;;;;;;58.03;2.50;;;22.50;1.00;;;;;;4991736;28;20541;-75
2021/07/30 08:57:42;;;;;;;57.80;2.10;;;22.60;1.00;;;;;;4991854;28;20458;-74
2021/07/30 09:00:13;;;;;;;60.00;2.47;;;22.80;1.00;;;;;;4993612;28;20623;-74
2021/07/30 09:02:40;;;;;;;58.60;2.70;;;22.90;1.00;;;;;;4995217;28;20892;-75
2021/07/30 09:05:29;;;;;;;59.27;2.70;;;23.00;1.00;;;;;;4995258;28;20964;-74
2021/07/30 09:07:58;;;;;;;58.10;2.77;;;23.00;1.00;;;;;;4995459;28;20537;-75
2021/07/30 09:10:34;;;;;;;58.60;2.50;;;23.10;1.00;;;;;;4994641;28;20499;-75
2021/07/30 09:13:16;;;;;;;58.50;2.50;;;23.30;1.00;;;;;;4995258;28;20453;-74
2021/07/30 09:15:43;;;;;;;60.50;4.13;;;23.50;1.00;;;;;;4995368;28;20990;-74
2021/07/30 09:18:25;;;;;;;58.03;2.33;;;23.60;1.00;;;;;;4981427;28;20462;-74
2021/07/30 09:20:52;;;;;;;58.07;2.27;;;23.70;1.00;;;;;;4975098;28;20475;-75
2021/07/30 09:23:19;;;;;;;58.00;2.50;;;23.90;1.00;;;;;;4975643;28;20462;-75
2021/07/30 09:25:47;;;;;;;57.77;2.47;;;24.10;1.00;;;;;;4975645;28;20456;-76
2021/07/30 09:28:14;;;;;;;58.30;2.50;;;24.30;1.00;;;;;;4975362;28;20455;-76
2021/07/30 09:30:41;;;;;;;57.87;2.30;;;24.40;1.00;;;;;;4975097;28;20493;-74
2021/07/30 09:33:08;;;;;;;58.77;2.97;;;24.40;1.00;;;;;;4975201;28;20487;-74
2021/07/30 09:35:56;;;;;;;58.37;2.40;;;24.60;1.00;;;;;;4975019;28;20533;-74
2021/07/30 09:38:23;;;;;;;57.97;2.27;;;24.90;1.00;;;;;;4975417;28;20458;-74
2021/07/30 09:41:10;;;;;;;58.20;2.70;;;25.10;1.00;;;;;;4974939;28;20506;-74
2021/07/30 09:43:38;;;;;;;59.27;3.00;;;25.20;1.00;;;;;;4975144;28;20459;-74
2021/07/30 09:46:16;;;;;;;57.90;2.20;;;25.40;1.00;;;;;;4975275;28;20453;-74
2021/07/30 09:48:51;;;;;;;58.17;2.50;;;25.50;1.00;;;;;;4973760;28;20885;-74
2021/07/30 09:51:18;;;;;;;58.37;3.00;;;25.60;1.00;;;;;;4974689;28;20492;-74
2021/07/30 09:53:46;;;;;;;58.17;3.03;;;25.90;1.00;;;;;;4974994;28;20449;-76
2021/07/30 09:56:15;;;;;;;59.90;2.67;;;26.20;1.00;;;;;;4974734;28;21023;-74
2021/07/30 09:58:44;;;;;;;57.87;2.00;;;26.30;1.00;;;;;;4974700;28;20458;-74
2021/07/30 10:01:17;;;;;;;57.83;2.23;;;26.40;1.00;;;;;;4974628;28;20470;-74
2021/07/30 10:03:47;;;;;;;57.77;2.30;;;26.60;1.00;;;;;;4974723;28;20477;-74
2021/07/30 10:06:15;;;;;;;58.17;2.50;;;26.90;1.00;;;;;;4974847;28;20916;-74
2021/07/30 10:08:43;;;;;;;57.77;2.20;;;27.10;1.00;;;;;;4974707;28;20450;-74
2021/07/30 10:11:12;;;;;;;57.77;2.40;;;27.30;1.00;;;;;;4973057;28;20514;-74
2021/07/30 10:13:48;;;;;;;58.40;2.90;;;27.50;1.00;;;;;;4974983;28;20894;-74
2021/07/30 10:16:20;;;;;;;58.20;2.70;;;27.70;1.00;;;;;;4974525;28;20859;-74
2021/07/30 10:18:49;;;;;;;58.87;3.20;;;27.90;1.00;;;;;;4974322;28;20483;-74
2021/07/30 10:21:20;;;;;;;57.63;2.33;;;28.10;1.00;;;;;;4984915;28;20553;-76
2021/07/30 10:23:50;;;;;;;58.50;3.20;;;28.50;1.00;;;;;;4994059;28;20455;-74
2021/07/30 10:26:21;;;;;;;58.00;2.40;;;29.40;1.00;;;;;;4993930;28;20453;-74
2021/07/30 10:28:49;;;;;;;58.00;2.57;;;30.50;1.00;;;;;;4993907;28;20480;-74
2021/07/30 10:31:16;;;;;;;57.80;2.60;;;31.70;1.00;;;;;;4993238;28;20496;-75
2021/07/30 10:33:50;;;;;;;58.47;3.00;;;32.90;1.00;;;;;;4993658;28;20447;-74
2021/07/30 10:36:38;;;;;;;57.90;2.30;;;33.30;1.00;;;;;;4993586;28;20451;-74
2021/07/30 10:39:11;;;;;;;57.47;2.50;;;32.90;1.00;;;;;;4993322;28;20447;-74
2021/07/30 10:41:40;;;;;;;57.80;2.50;;;32.40;1.00;;;;;;4993402;28;20886;-74
2021/07/30 10:44:12;;;;;;;57.70;2.40;;;31.80;1.00;;;;;;4993475;28;20456;-74
2021/07/30 10:46:39;;;;;;;58.30;2.63;;;31.10;1.00;;;;;;4993299;28;20474;-75
2021/07/30 10:49:38;;;;;;;58.20;2.93;;;30.40;1.00;;;;;;4988978;28;20463;-75
2021/07/30 10:52:29;;;;;;;57.77;2.37;;;29.70;1.00;;;;;;4973809;28;20458;-74
2021/07/30 10:54:56;;;;;;;58.77;2.20;;;29.10;1.00;;;;;;4963051;28;20554;-75
2021/07/30 10:57:48;;;;;;;58.27;2.30;;;28.80;1.00;;;;;;4972521;28;20495;-75
2021/07/30 11:00:17;;;;;;;57.90;2.10;;;28.50;1.00;;;;;;4969430;28;20856;-75
2021/07/30 11:03:05;;;;;;;58.00;2.30;;;28.50;1.00;;;;;;4973466;28;20506;-75
2021/07/30 11:05:33;;;;;;;57.87;2.10;;;28.50;1.00;;;;;;4973856;28;20484;-75
2021/07/30 11:08:02;;;;;;;57.87;2.10;;;28.40;1.00;;;;;;4973674;28;20471;-75
2021/07/30 11:10:28;;;;;;;58.33;2.60;;;28.30;1.00;;;;;;4973247;28;20499;-74
2021/07/30 11:12:56;;;;;;;58.10;2.23;;;28.30;1.00;;;;;;4973258;28;20466;-75
2021/07/30 11:15:32;;;;;;;57.67;2.10;;;28.20;1.00;;;;;;4973498;28;20451;-75
2021/07/30 11:18:01;;;;;;;59.50;2.70;;;28.30;1.00;;;;;;4973278;28;20952;-74
2021/07/30 11:20:33;;;;;;;57.83;2.23;;;28.50;1.00;;;;;;4973048;28;20472;-75
2021/07/30 11:23:06;;;;;;;57.83;2.27;;;28.60;1.00;;;;;;4972687;28;20454;-75
2021/07/30 11:25:33;;;;;;;57.93;2.10;;;28.60;1.00;;;;;;4973434;28;20483;-72
2021/07/30 11:28:00;;;;;;;57.80;2.20;;;28.50;1.00;;;;;;4972790;28;20452;-74
2021/07/30 11:30:32;;;;;;;57.90;2.37;;;28.90;1.00;;;;;;4972099;28;20500;-73
2021/07/30 11:33:00;;;;;;;57.63;2.43;;;29.70;1.00;;;;;;4973334;28;20828;-73
2021/07/30 11:35:30;;;;;;;58.17;2.90;;;30.40;1.00;;;;;;4973042;28;20465;-73
2021/07/30 11:38:02;;;;;;;57.67;2.27;;;31.60;1.00;;;;;;4973088;28;20461;-75
2021/07/30 11:40:28;;;;;;;57.77;2.70;;;32.30;1.00;;;;;;4972582;28;20472;-72
2021/07/30 11:43:08;;;;;;;57.40;2.33;;;33.20;1.00;;;;;;4972965;28;20462;-72
2021/07/30 11:45:38;;;;;;;58.07;2.63;;;34.80;1.00;;;;;;4972858;28;20459;-72
2021/07/30 11:48:11;;;;;;;57.90;2.40;;;36.10;1.00;;;;;;4973090;28;20886;-72
2021/07/30 11:50:39;;;;;;;57.57;2.40;;;37.20;1.00;;;;;;4972809;28;20487;-73
2021/07/30 11:53:08;;;;;;;57.60;2.60;;;38.00;1.00;;;;;;4972677;28;20475;-73
2021/07/30 11:55:35;;;;;;;57.57;2.53;;;38.50;1.00;;;;;;4973018;28;20458;-73
2021/07/30 11:58:11;;;;;;;57.60;2.60;;;38.90;1.00;;;;;;4973091;28;20548;-72
2021/07/30 12:00:39;;;;;;;58.07;2.90;;;39.40;1.00;;;;;;4975433;28;20476;-73
2021/07/30 12:03:19;;;;;;;62.33;4.67;;;39.50;1.00;;;;;;4992054;28;20459;-73
2021/07/30 12:05:49;;;;;;;57.27;2.33;;;39.50;1.00;;;;;;4992204;28;20462;-72
2021/07/30 12:08:18;;;;;;;56.70;2.30;;;39.90;1.00;;;;;;4992295;28;20939;-73
2021/07/30 12:10:46;;;;;;;56.77;2.47;;;40.30;1.00;;;;;;4991888;28;20496;-74
2021/07/30 12:13:13;;;;;;;57.87;2.70;;;40.50;1.00;;;;;;4992276;28;20454;-73
2021/07/30 12:15:42;;;;;;;57.50;2.50;;;41.00;1.00;;;;;;4992400;28;20447;-72
2021/07/30 12:18:09;;;;;;;56.40;2.43;;;41.60;1.00;;;;;;4991884;28;20451;-74
2021/07/30 12:20:38;;;;;;;57.07;2.80;;;42.00;1.00;;;;;;4991948;28;20481;-73
2021/07/30 12:23:06;;;;;;;56.47;2.37;;;42.50;1.00;;;;;;4991957;28;20814;-73
2021/07/30 12:25:35;;;;;;;57.00;2.30;;;42.90;1.00;;;;;;4992313;28;20874;-73
2021/07/30 12:28:06;;;;;;;57.50;2.50;;;42.40;1.00;;;;;;4992057;28;20463;-74
2021/07/30 12:30:33;;;;;;;57.60;2.60;;;41.40;1.00;;;;;;4991707;28;20530;-73
2021/07/30 12:33:01;;;;;;;56.60;2.57;;;40.40;1.00;;;;;;4989781;28;20973;-73
2021/07/30 12:35:37;;;;;;;56.73;2.40;;;40.20;1.00;;;;;;4995015;28;20947;-73
2021/07/30 12:38:06;;;;;;;57.40;2.80;;;39.70;1.00;;;;;;4995724;28;20947;-73
2021/07/30 12:40:33;;;;;;;57.50;2.60;;;38.70;1.00;;;;;;4995457;28;20482;-73
2021/07/30 12:43:13;;;;;;;57.57;2.57;;;37.70;1.00;;;;;;4995542;28;20455;-73
2021/07/30 12:45:42;;;;;;;58.30;2.80;;;36.50;1.00;;;;;;4996072;28;20454;-73
2021/07/30 12:48:17;;;;;;;58.00;2.60;;;35.70;1.00;;;;;;4995801;28;20451;-73
2021/07/30 12:50:44;;;;;;;57.93;2.93;;;35.00;1.00;;;;;;4995378;28;20490;-74
2021/07/30 12:53:13;;;;;;;57.63;2.27;;;34.40;1.00;;;;;;4995440;28;20446;-73
2021/07/30 12:55:57;;;;;;;58.00;2.30;;;33.80;1.00;;;;;;4995470;28;20451;-74
2021/07/30 12:58:24;;;;;;;57.90;2.40;;;33.60;1.00;;;;;;4995749;28;20594;-73
2021/07/30 13:00:51;;;;;;;57.50;2.43;;;33.70;1.00;;;;;;4995158;28;20557;-73